KEKO/EKO METAR and TAF weather

Enter ICAO airport designator
Station Type Date Time Source
KEKO METAR 2020/02/24 23:56 UTC NOAA

KEKO 242356Z AUTO 25014G18KT 10SM CLR 07/M13 A3030 RMK AO2 SLP267 T00721133 10072 20022 56006


Station Type Date Time Source
KEKO Decoded METAR 2020/02/24 23:56 UTC NOAA

ELKO REGIONAL AIRPORT, NV, United States (KEKO) 40-50N 115-47W 1547M
Feb 24, 2020 - 06:56 PM EST / 2020.02.24 2356 UTC
Wind: from the WSW (250 degrees) at 16 MPH (14 KT) gusting to 21 MPH (18 KT):0
Visibility: 10 mile(s):0
Sky conditions: clear
Temperature: 45.0 F (7.2 C)
Dew Point: 8.1 F (-13.3 C)
Relative Humidity: 21%
Pressure (altimeter): 30.3 in. Hg (1026 hPa)
Pressure tendency: 0.02 inches (0.6 hPa) lower than three hours ago
ob: KEKO 242356Z AUTO 25014G18KT 10SM CLR 07/M13 A3030 RMK AO2 SLP267 T00721133 10072 20022 56006
cycle: 0

Station Type Date Time Source
KEKO TAF 2020/02/24 18:27 UTC NOAA

TAF KEKO 241724Z 2418/2518 26010KT P6SM FEW250
FM242100 28015G20KT P6SM FEW250
FM250200 33005KT P6SM SKC
FM250800 VRB05KT P6SM SKC

Example: see airport list